createdAt,value
2023-11-23T00:00:11.204Z,100.00
2023-11-23T00:02:39.424Z,100.00
2023-11-23T00:05:09.914Z,100.00
2023-11-23T00:07:36.962Z,100.00
2023-11-23T00:10:05.854Z,100.00
2023-11-23T00:12:32.336Z,100.00
2023-11-23T00:15:01.426Z,100.00
2023-11-23T00:17:28.676Z,100.00
2023-11-23T00:19:55.596Z,100.00
2023-11-23T00:22:22.594Z,100.00
2023-11-23T00:24:49.371Z,100.00
2023-11-23T00:27:16.408Z,100.00
2023-11-23T00:29:43.228Z,100.00
2023-11-23T00:32:09.607Z,100.00
2023-11-23T00:34:38.955Z,100.00
2023-11-23T00:37:08.342Z,100.00
2023-11-23T00:39:35.928Z,100.00
2023-11-23T00:42:02.514Z,100.00
2023-11-23T00:44:28.943Z,100.00
2023-11-23T00:46:55.425Z,100.00
2023-11-23T00:49:22.887Z,100.00
2023-11-23T00:51:49.310Z,100.00
2023-11-23T00:54:15.830Z,100.00
2023-11-23T00:56:42.313Z,100.00
2023-11-23T00:59:08.995Z,100.00
2023-11-23T01:01:35.531Z,100.00
2023-11-23T01:04:02.693Z,100.00
2023-11-23T01:06:29.172Z,100.00
2023-11-23T01:08:55.605Z,100.00
2023-11-23T01:11:23.133Z,100.00
2023-11-23T01:13:49.500Z,100.00
2023-11-23T01:16:15.898Z,100.00
2023-11-23T01:18:43.479Z,100.00
2023-11-23T01:21:10.090Z,100.00
2023-11-23T01:23:36.788Z,100.00
2023-11-23T01:26:03.303Z,100.00
2023-11-23T01:28:29.748Z,100.00
2023-11-23T01:30:56.376Z,100.00
2023-11-23T01:33:24.322Z,100.00
2023-11-23T01:35:51.557Z,100.00
2023-11-23T01:38:18.038Z,100.00
2023-11-23T01:40:44.470Z,100.00
2023-11-23T01:43:11.265Z,100.00
2023-11-23T01:45:38.681Z,100.00
2023-11-23T01:48:06.085Z,100.00
2023-11-23T01:50:33.028Z,100.00
2023-11-23T01:53:00.521Z,100.00
2023-11-23T01:55:27.620Z,100.00
2023-11-23T01:57:55.171Z,100.00
2023-11-23T02:00:25.432Z,100.00
2023-11-23T02:02:53.097Z,100.00
2023-11-23T02:05:23.025Z,100.00
2023-11-23T02:07:49.438Z,100.00
2023-11-23T02:10:16.046Z,100.00
2023-11-23T02:12:44.538Z,100.00
2023-11-23T02:15:11.513Z,100.00
2023-11-23T02:17:38.048Z,100.00
2023-11-23T02:20:09.880Z,100.00
2023-11-23T02:22:37.066Z,100.00
2023-11-23T02:25:05.272Z,100.00
2023-11-23T02:27:31.699Z,100.00
2023-11-23T02:29:58.142Z,100.00
2023-11-23T02:32:26.718Z,100.00
2023-11-23T02:34:53.342Z,100.00
2023-11-23T02:37:19.839Z,100.00
2023-11-23T02:39:46.831Z,100.00
2023-11-23T02:42:13.540Z,100.00
2023-11-23T02:44:40.015Z,100.00
2023-11-23T02:47:06.421Z,100.00
2023-11-23T02:49:32.789Z,100.00
2023-11-23T02:51:59.237Z,100.00
2023-11-23T02:54:25.673Z,100.00
2023-11-23T02:56:52.181Z,100.00
2023-11-23T02:59:18.634Z,100.00
2023-11-23T03:01:45.084Z,100.00
2023-11-23T03:04:11.796Z,100.00
2023-11-23T03:06:38.220Z,100.00
2023-11-23T03:09:04.735Z,100.00
2023-11-23T03:11:32.517Z,100.00
2023-11-23T03:13:58.981Z,100.00
2023-11-23T03:16:25.634Z,100.00
2023-11-23T03:18:52.138Z,100.00
2023-11-23T03:21:18.781Z,100.00
2023-11-23T03:23:46.674Z,100.00
2023-11-23T03:26:13.169Z,100.00
2023-11-23T03:28:39.594Z,100.00
2023-11-23T03:31:07.309Z,100.00
2023-11-23T03:33:33.940Z,100.00
2023-11-23T03:36:00.643Z,100.00
2023-11-23T03:38:27.151Z,100.00
2023-11-23T03:40:53.781Z,100.00
2023-11-23T03:43:20.786Z,100.00
2023-11-23T03:45:47.832Z,100.00
2023-11-23T03:48:14.478Z,100.00
2023-11-23T03:50:41.217Z,100.00
2023-11-23T03:53:07.729Z,100.00
2023-11-23T03:55:34.642Z,100.00
2023-11-23T03:58:01.117Z,100.00
2023-11-23T04:00:29.163Z,100.00
2023-11-23T04:02:57.178Z,100.00
2023-11-23T04:05:23.947Z,100.00
2023-11-23T04:07:50.820Z,100.00
2023-11-23T04:10:17.266Z,100.00
2023-11-23T04:12:43.727Z,100.00
2023-11-23T04:15:11.209Z,100.00
2023-11-23T04:17:37.762Z,100.00
2023-11-23T04:20:04.674Z,100.00
2023-11-23T04:22:31.026Z,100.00
2023-11-23T04:24:57.453Z,100.00
2023-11-23T04:27:25.031Z,100.00
2023-11-23T04:29:51.921Z,100.00
2023-11-23T04:32:18.419Z,100.00
2023-11-23T04:34:44.926Z,100.00
2023-11-23T04:37:11.359Z,100.00
2023-11-23T04:39:37.839Z,100.00
2023-11-23T04:42:04.647Z,100.00
2023-11-23T04:44:31.202Z,100.00
2023-11-23T04:46:57.624Z,100.00
2023-11-23T04:49:24.110Z,100.00
2023-11-23T04:51:50.483Z,100.00
2023-11-23T04:54:16.870Z,100.00
2023-11-23T04:56:43.411Z,100.00
2023-11-23T04:59:09.994Z,100.00
2023-11-23T05:01:36.663Z,100.00
2023-11-23T05:04:05.677Z,100.00
2023-11-23T05:06:32.593Z,100.00
2023-11-23T05:08:59.074Z,100.00
2023-11-23T05:11:25.547Z,100.00
2023-11-23T05:13:52.167Z,100.00
2023-11-23T05:16:18.649Z,100.00
2023-11-23T05:18:45.061Z,100.00
2023-11-23T05:21:11.595Z,100.00
2023-11-23T05:23:38.030Z,100.00
2023-11-23T05:26:05.678Z,100.00
2023-11-23T05:28:32.550Z,100.00
2023-11-23T05:30:59.022Z,100.00
2023-11-23T05:33:26.008Z,100.00
2023-11-23T05:35:52.783Z,100.00
2023-11-23T05:38:19.429Z,100.00
2023-11-23T05:40:45.817Z,100.00
2023-11-23T05:43:12.263Z,100.00
2023-11-23T05:45:38.735Z,100.00
2023-11-23T05:48:07.008Z,100.00
2023-11-23T05:50:33.547Z,100.00
2023-11-23T05:52:59.912Z,100.00
2023-11-23T05:55:26.329Z,100.00
2023-11-23T05:57:52.714Z,100.00
2023-11-23T06:00:19.546Z,100.00
2023-11-23T06:02:46.135Z,100.00
2023-11-23T06:05:13.480Z,100.00
2023-11-23T06:07:40.071Z,100.00
2023-11-23T06:10:07.489Z,100.00
2023-11-23T06:12:36.583Z,100.00
2023-11-23T06:15:04.130Z,100.00
2023-11-23T06:17:30.597Z,100.00
2023-11-23T06:19:57.049Z,100.00
2023-11-23T06:22:23.647Z,100.00
2023-11-23T06:24:50.261Z,100.00
2023-11-23T06:27:17.574Z,100.00
2023-11-23T06:29:44.048Z,100.00
2023-11-23T06:32:11.745Z,100.00
2023-11-23T06:34:40.460Z,100.00
2023-11-23T06:37:07.765Z,100.00
2023-11-23T06:39:37.996Z,100.00
2023-11-23T06:42:04.776Z,100.00
2023-11-23T06:44:31.596Z,100.00
2023-11-23T06:46:58.095Z,100.00
2023-11-23T06:49:24.500Z,100.00
2023-11-23T06:51:51.132Z,100.00
2023-11-23T06:54:18.000Z,100.00
2023-11-23T06:56:44.403Z,100.00
2023-11-23T06:59:10.805Z,100.00
2023-11-23T07:01:37.352Z,100.00
2023-11-23T07:04:05.146Z,100.00
2023-11-23T07:06:31.956Z,100.00
2023-11-23T07:09:00.140Z,100.00
2023-11-23T07:11:26.596Z,100.00
2023-11-23T07:13:52.971Z,100.00
2023-11-23T07:16:21.196Z,100.00
2023-11-23T07:18:48.167Z,100.00
2023-11-23T07:21:17.884Z,100.00
2023-11-23T07:23:44.457Z,100.00
2023-11-23T07:26:12.484Z,100.00
2023-11-23T07:28:38.948Z,100.00
2023-11-23T07:31:06.434Z,100.00
2023-11-23T07:33:35.974Z,100.00
2023-11-23T07:36:06.109Z,100.00
2023-11-23T07:38:33.788Z,100.00
2023-11-23T07:41:02.508Z,100.00
2023-11-23T07:43:32.211Z,100.00
2023-11-23T07:45:59.938Z,100.00
2023-11-23T07:48:27.476Z,100.00
2023-11-23T07:50:54.038Z,100.00
2023-11-23T07:53:23.157Z,100.00
2023-11-23T07:55:50.315Z,100.00
2023-11-23T07:58:17.218Z,100.00
2023-11-23T08:00:43.985Z,100.00
2023-11-23T08:03:11.223Z,100.00
2023-11-23T08:05:38.101Z,100.00
2023-11-23T08:08:04.722Z,100.00
2023-11-23T08:10:31.299Z,100.00
2023-11-23T08:12:59.531Z,100.00
2023-11-23T08:15:26.525Z,100.00
2023-11-23T08:17:58.747Z,100.00
2023-11-23T08:20:33.286Z,100.00
2023-11-23T08:22:59.823Z,100.00
2023-11-23T08:25:26.436Z,100.00
2023-11-23T08:27:52.889Z,100.00
2023-11-23T08:30:21.788Z,100.00
2023-11-23T08:32:48.467Z,100.00
2023-11-23T08:35:15.114Z,100.00
2023-11-23T08:37:56.581Z,100.00
2023-11-23T08:40:23.438Z,100.00
2023-11-23T08:42:59.370Z,100.00
2023-11-23T08:45:26.015Z,100.00
2023-11-23T08:47:53.479Z,100.00
2023-11-23T08:50:20.041Z,100.00
2023-11-23T08:52:46.786Z,100.00
2023-11-23T08:55:14.343Z,98.65
2023-11-23T08:57:42.007Z,96.41
2023-11-23T09:00:12.496Z,90.75
2023-11-23T09:02:39.531Z,88.15
2023-11-23T09:05:10.616Z,80.57
2023-11-23T09:07:37.325Z,84.15
2023-11-23T09:10:03.971Z,89.42
2023-11-23T09:12:33.559Z,89.13
2023-11-23T09:15:00.628Z,90.66
2023-11-23T09:17:27.588Z,90.41
2023-11-23T09:19:54.431Z,87.88
2023-11-23T09:22:20.889Z,89.76
2023-11-23T09:24:47.298Z,81.14
2023-11-23T09:27:15.769Z,70.22
2023-11-23T09:29:42.262Z,61.96
2023-11-23T09:32:09.970Z,59.53
2023-11-23T09:34:36.617Z,56.40
2023-11-23T09:37:03.194Z,55.90
2023-11-23T09:39:29.949Z,56.57
2023-11-23T09:41:59.476Z,55.60
2023-11-23T09:44:29.447Z,53.26
2023-11-23T09:46:57.082Z,57.76
2023-11-23T09:49:24.851Z,64.06
2023-11-23T09:51:52.963Z,57.67
2023-11-23T09:54:22.716Z,59.97
2023-11-23T09:56:49.519Z,69.42
2023-11-23T09:59:16.590Z,76.62
2023-11-23T10:01:49.805Z,80.48
2023-11-23T10:04:17.134Z,83.20
2023-11-23T10:06:44.150Z,83.33
2023-11-23T10:09:15.807Z,84.82
2023-11-23T10:11:42.261Z,84.83
2023-11-23T10:14:08.704Z,82.70
2023-11-23T10:16:35.410Z,82.75
2023-11-23T10:19:02.112Z,82.71
2023-11-23T10:21:29.528Z,82.44
2023-11-23T10:24:03.906Z,81.40
2023-11-23T10:26:30.206Z,77.56
2023-11-23T10:28:57.645Z,70.20
2023-11-23T10:31:24.250Z,65.38
2023-11-23T10:33:51.661Z,66.25
2023-11-23T10:36:18.863Z,69.69
2023-11-23T10:38:46.021Z,63.56
2023-11-23T10:41:14.804Z,62.78
2023-11-23T10:43:43.229Z,56.60
2023-11-23T10:46:10.840Z,61.37
2023-11-23T10:48:38.137Z,61.07
2023-11-23T10:51:06.779Z,58.36
2023-11-23T10:53:33.865Z,57.10
2023-11-23T10:56:09.978Z,58.30
2023-11-23T10:58:39.593Z,64.15
2023-11-23T11:01:10.344Z,67.83
2023-11-23T11:03:39.396Z,71.79
2023-11-23T11:06:11.519Z,71.42
2023-11-23T11:08:39.653Z,70.14
2023-11-23T11:11:12.127Z,74.36
2023-11-23T11:13:45.545Z,77.70
2023-11-23T11:16:16.902Z,80.06
2023-11-23T11:18:53.936Z,81.24
2023-11-23T11:21:27.240Z,81.82
2023-11-23T11:23:55.161Z,83.00
2023-11-23T11:26:22.756Z,84.47
2023-11-23T11:29:04.105Z,84.84
2023-11-23T11:31:38.749Z,85.00
2023-11-23T11:34:26.122Z,85.40
2023-11-23T11:36:55.275Z,84.08
2023-11-23T11:39:23.477Z,82.04
2023-11-23T11:41:57.834Z,81.95
2023-11-23T11:44:24.289Z,75.63
2023-11-23T11:46:50.933Z,74.42
2023-11-23T11:49:18.112Z,75.54
2023-11-23T11:51:44.966Z,72.59
2023-11-23T11:54:11.649Z,66.57
2023-11-23T11:56:38.502Z,68.14
2023-11-23T11:59:07.600Z,60.10
2023-11-23T12:01:35.068Z,62.37
2023-11-23T12:04:02.028Z,68.44
2023-11-23T12:06:30.765Z,70.24
2023-11-23T12:08:58.550Z,73.68
2023-11-23T12:11:29.093Z,76.26
2023-11-23T12:13:57.986Z,77.82
2023-11-23T12:16:37.653Z,79.80
2023-11-23T12:19:17.540Z,81.26
2023-11-23T12:21:44.476Z,82.67
2023-11-23T12:24:11.013Z,82.82
2023-11-23T12:26:39.835Z,82.94
2023-11-23T12:29:06.493Z,83.34
2023-11-23T12:31:33.667Z,82.85
2023-11-23T12:34:00.264Z,82.54
2023-11-23T12:36:26.652Z,82.55
2023-11-23T12:38:53.120Z,82.69
2023-11-23T12:41:21.276Z,82.87
2023-11-23T12:43:47.700Z,83.56
2023-11-23T12:46:14.232Z,84.65
2023-11-23T12:48:40.800Z,85.10
2023-11-23T12:51:07.943Z,84.92
2023-11-23T12:53:34.676Z,85.71
2023-11-23T12:56:01.082Z,85.28
2023-11-23T12:58:27.854Z,85.33
2023-11-23T13:00:54.274Z,85.72
2023-11-23T13:03:22.546Z,86.38
2023-11-23T13:05:51.027Z,86.81
2023-11-23T13:08:17.491Z,86.39
2023-11-23T13:10:44.968Z,86.77
2023-11-23T13:13:11.991Z,87.11
2023-11-23T13:15:38.502Z,87.30
2023-11-23T13:18:05.658Z,87.39
2023-11-23T13:20:32.719Z,88.05
2023-11-23T13:23:04.013Z,87.93
2023-11-23T13:25:30.555Z,88.38
2023-11-23T13:27:59.574Z,88.08
2023-11-23T13:30:26.612Z,88.64
2023-11-23T13:32:53.169Z,88.21
2023-11-23T13:35:19.938Z,88.58
2023-11-23T13:37:46.718Z,88.63
2023-11-23T13:40:14.175Z,89.03
2023-11-23T13:42:42.354Z,88.65
2023-11-23T13:45:09.887Z,89.19
2023-11-23T13:47:36.825Z,88.83
2023-11-23T13:50:08.981Z,89.66
2023-11-23T13:52:39.070Z,90.12
2023-11-23T13:55:06.502Z,90.07
2023-11-23T13:57:34.342Z,90.54
2023-11-23T14:00:06.791Z,90.61
2023-11-23T14:02:37.581Z,90.54
2023-11-23T14:05:06.611Z,90.88
2023-11-23T14:07:33.015Z,90.58
2023-11-23T14:09:59.581Z,90.15
2023-11-23T14:12:26.292Z,90.39
2023-11-23T14:14:53.552Z,90.48
2023-11-23T14:17:20.014Z,90.66
2023-11-23T14:19:46.699Z,90.69
2023-11-23T14:22:13.141Z,90.85
2023-11-23T14:24:40.496Z,90.70
2023-11-23T14:27:09.172Z,90.64
2023-11-23T14:29:35.598Z,90.10
2023-11-23T14:32:02.027Z,90.05
2023-11-23T14:34:29.690Z,89.67
2023-11-23T14:36:57.240Z,88.80
2023-11-23T14:39:29.451Z,88.49
2023-11-23T14:41:56.718Z,88.07
2023-11-23T14:44:23.883Z,88.03
2023-11-23T14:46:51.480Z,87.91
2023-11-23T14:49:19.878Z,88.65
2023-11-23T14:51:52.906Z,89.14
2023-11-23T14:54:31.689Z,89.60
2023-11-23T14:57:03.942Z,89.51
2023-11-23T14:59:30.485Z,89.31
2023-11-23T15:01:57.673Z,89.46
2023-11-23T15:04:24.253Z,89.21
2023-11-23T15:06:50.849Z,89.78
2023-11-23T15:09:19.283Z,89.48
2023-11-23T15:11:46.142Z,89.45
2023-11-23T15:14:12.589Z,89.58
2023-11-23T15:16:39.028Z,89.65
2023-11-23T15:19:06.001Z,89.62
2023-11-23T15:21:32.752Z,90.27
2023-11-23T15:24:01.621Z,90.13
2023-11-23T15:26:30.251Z,90.35
2023-11-23T15:28:59.158Z,90.43
2023-11-23T15:31:25.925Z,90.51
2023-11-23T15:33:52.525Z,91.06
2023-11-23T15:36:19.163Z,91.03
2023-11-23T15:38:45.703Z,91.74
2023-11-23T15:41:12.345Z,91.48
2023-11-23T15:43:39.449Z,91.24
2023-11-23T15:46:06.760Z,91.99
2023-11-23T15:48:34.113Z,92.06
2023-11-23T15:51:00.748Z,92.10
2023-11-23T15:53:29.496Z,92.21
2023-11-23T15:55:55.999Z,92.06
2023-11-23T15:58:23.013Z,92.67
2023-11-23T16:00:49.651Z,92.67
2023-11-23T16:03:16.894Z,92.67
2023-11-23T16:05:44.051Z,92.78
2023-11-23T16:08:10.932Z,92.96
2023-11-23T16:10:37.386Z,93.36
2023-11-23T16:13:03.947Z,92.94
2023-11-23T16:15:30.730Z,93.37
2023-11-23T16:17:59.076Z,93.50
2023-11-23T16:20:25.952Z,93.44
2023-11-23T16:22:52.408Z,93.26
2023-11-23T16:25:18.871Z,93.08
2023-11-23T16:27:46.108Z,93.05
2023-11-23T16:30:15.114Z,92.86
2023-11-23T16:32:43.259Z,93.25
2023-11-23T16:35:12.080Z,92.94
2023-11-23T16:37:39.150Z,92.76
2023-11-23T16:40:11.716Z,93.40
2023-11-23T16:42:41.550Z,92.87
2023-11-23T16:45:09.486Z,92.92
2023-11-23T16:47:36.996Z,92.41
2023-11-23T16:50:03.643Z,92.83
2023-11-23T16:52:30.182Z,93.00
2023-11-23T16:54:56.688Z,92.19
2023-11-23T16:57:23.639Z,92.85
2023-11-23T16:59:50.125Z,92.45
2023-11-23T17:02:16.656Z,92.91
2023-11-23T17:04:43.177Z,92.98
2023-11-23T17:07:09.572Z,92.89
2023-11-23T17:09:36.037Z,92.61
2023-11-23T17:12:02.474Z,92.93
2023-11-23T17:14:28.928Z,92.72
2023-11-23T17:16:55.440Z,92.97
2023-11-23T17:19:25.073Z,92.77
2023-11-23T17:21:53.562Z,92.85
2023-11-23T17:24:24.368Z,92.97
2023-11-23T17:26:51.618Z,93.09
2023-11-23T17:29:18.552Z,93.02
2023-11-23T17:31:46.578Z,93.59
2023-11-23T17:34:13.345Z,93.68
2023-11-23T17:36:40.267Z,93.13
2023-11-23T17:39:07.100Z,93.21
2023-11-23T17:41:33.901Z,93.21
2023-11-23T17:44:00.359Z,93.39
2023-11-23T17:46:27.836Z,93.33
2023-11-23T17:48:54.407Z,93.81
2023-11-23T17:51:20.925Z,93.80
2023-11-23T17:53:47.374Z,94.09
2023-11-23T17:56:16.255Z,94.21
2023-11-23T17:58:42.756Z,94.05
2023-11-23T18:01:09.300Z,94.58
2023-11-23T18:03:36.402Z,94.65
2023-11-23T18:06:02.893Z,94.70
2023-11-23T18:08:29.347Z,95.02
2023-11-23T18:11:00.102Z,95.19
2023-11-23T18:13:30.244Z,95.16
2023-11-23T18:15:56.761Z,95.54
2023-11-23T18:18:24.589Z,95.56
2023-11-23T18:20:52.482Z,95.54
2023-11-23T18:23:20.025Z,96.49
2023-11-23T18:25:46.640Z,97.14
2023-11-23T18:28:13.151Z,97.95
2023-11-23T18:30:40.570Z,98.96
2023-11-23T18:33:07.181Z,98.99
2023-11-23T18:35:34.520Z,99.41
2023-11-23T18:38:01.182Z,99.66
2023-11-23T18:40:27.750Z,100.00
2023-11-23T18:42:54.838Z,100.00
2023-11-23T18:45:21.428Z,100.00
2023-11-23T18:47:48.051Z,100.00
2023-11-23T18:50:15.712Z,100.00
2023-11-23T18:52:42.735Z,100.00
2023-11-23T18:55:10.196Z,100.00
2023-11-23T18:57:36.982Z,100.00
2023-11-23T19:00:05.123Z,100.00
2023-11-23T19:02:31.749Z,100.00
2023-11-23T19:04:58.273Z,100.00
2023-11-23T19:07:25.775Z,100.00
2023-11-23T19:09:52.284Z,100.00
2023-11-23T19:12:20.615Z,100.00
2023-11-23T19:14:47.099Z,100.00
2023-11-23T19:17:14.632Z,100.00
2023-11-23T19:19:41.270Z,100.00
2023-11-23T19:22:08.415Z,100.00
2023-11-23T19:24:35.256Z,100.00
2023-11-23T19:27:01.903Z,100.00
2023-11-23T19:29:38.802Z,100.00
2023-11-23T19:32:19.893Z,100.00
2023-11-23T19:34:47.655Z,100.00
2023-11-23T19:37:17.010Z,100.00
2023-11-23T19:39:48.591Z,100.00
2023-11-23T19:42:16.013Z,100.00
2023-11-23T19:44:42.782Z,100.00
2023-11-23T19:47:10.017Z,100.00
2023-11-23T19:49:37.103Z,100.00
2023-11-23T19:52:29.033Z,100.00
2023-11-23T19:54:56.583Z,100.00
2023-11-23T19:57:23.127Z,100.00
2023-11-23T19:59:49.675Z,100.00
2023-11-23T20:02:16.333Z,100.00
2023-11-23T20:04:43.005Z,100.00
2023-11-23T20:07:10.925Z,100.00
2023-11-23T20:09:38.503Z,100.00
2023-11-23T20:12:05.421Z,100.00
2023-11-23T20:14:32.543Z,100.00
2023-11-23T20:17:01.102Z,100.00
2023-11-23T20:19:29.452Z,100.00
2023-11-23T20:21:56.535Z,100.00
2023-11-23T20:24:25.276Z,100.00
2023-11-23T20:26:52.211Z,100.00
2023-11-23T20:29:19.425Z,100.00
2023-11-23T20:31:46.828Z,100.00
2023-11-23T20:34:14.013Z,100.00
2023-11-23T20:36:41.263Z,100.00
2023-11-23T20:39:10.284Z,100.00
2023-11-23T20:41:36.969Z,100.00
2023-11-23T20:44:03.504Z,100.00
2023-11-23T20:46:30.040Z,100.00
2023-11-23T20:48:57.048Z,100.00
2023-11-23T20:51:23.516Z,100.00
2023-11-23T20:53:52.447Z,100.00
2023-11-23T20:56:21.839Z,100.00
2023-11-23T20:58:50.121Z,100.00
2023-11-23T21:01:17.334Z,100.00
2023-11-23T21:03:44.296Z,100.00
2023-11-23T21:06:17.691Z,100.00
2023-11-23T21:08:45.521Z,100.00
2023-11-23T21:11:12.620Z,100.00
2023-11-23T21:13:39.653Z,100.00
2023-11-23T21:16:06.800Z,99.77
2023-11-23T21:18:33.827Z,99.49
2023-11-23T21:21:00.713Z,99.31
2023-11-23T21:23:27.636Z,99.30
2023-11-23T21:25:54.625Z,98.92
2023-11-23T21:28:21.146Z,98.43
2023-11-23T21:30:48.469Z,97.67
2023-11-23T21:33:15.233Z,96.97
2023-11-23T21:35:41.876Z,95.52
2023-11-23T21:38:08.544Z,94.59
2023-11-23T21:40:37.165Z,93.28
2023-11-23T21:43:03.637Z,92.45
2023-11-23T21:45:30.768Z,91.92
2023-11-23T21:47:57.321Z,91.17
2023-11-23T21:50:23.965Z,90.06
2023-11-23T21:52:52.693Z,89.26
2023-11-23T21:55:20.387Z,88.73
2023-11-23T21:57:47.106Z,88.52
2023-11-23T22:00:14.077Z,89.62
2023-11-23T22:02:41.542Z,88.33
2023-11-23T22:05:08.293Z,88.06
2023-11-23T22:07:34.672Z,88.28
2023-11-23T22:10:01.728Z,87.51
2023-11-23T22:12:28.375Z,87.72
2023-11-23T22:14:55.324Z,87.06
2023-11-23T22:17:22.141Z,87.66
2023-11-23T22:19:48.900Z,87.47
2023-11-23T22:22:15.559Z,86.73
2023-11-23T22:24:44.011Z,87.42
2023-11-23T22:27:11.031Z,87.20
2023-11-23T22:29:37.646Z,86.50
2023-11-23T22:32:06.394Z,87.48
2023-11-23T22:34:33.129Z,87.24
2023-11-23T22:36:59.872Z,87.14
2023-11-23T22:39:26.655Z,86.45
2023-11-23T22:41:53.375Z,86.49
2023-11-23T22:44:20.083Z,85.02
2023-11-23T22:46:46.715Z,85.27
2023-11-23T22:49:13.099Z,85.24
2023-11-23T22:51:39.894Z,84.61
2023-11-23T22:54:07.262Z,84.24
2023-11-23T22:56:33.947Z,84.83
2023-11-23T22:59:00.659Z,84.23
2023-11-23T23:01:28.909Z,86.29
2023-11-23T23:03:55.568Z,85.96
2023-11-23T23:06:22.250Z,86.14
2023-11-23T23:08:48.920Z,87.84
2023-11-23T23:11:15.453Z,88.42
2023-11-23T23:13:41.824Z,88.61
2023-11-23T23:16:08.234Z,88.35
2023-11-23T23:18:34.684Z,88.81
2023-11-23T23:21:01.175Z,88.72
2023-11-23T23:23:27.663Z,88.48
2023-11-23T23:25:54.110Z,89.21
2023-11-23T23:28:29.397Z,89.85
2023-11-23T23:30:58.948Z,90.25
2023-11-23T23:33:25.580Z,91.10
2023-11-23T23:35:53.231Z,90.97
2023-11-23T23:38:20.115Z,91.48
2023-11-23T23:40:50.747Z,91.66
2023-11-23T23:43:18.295Z,91.61
2023-11-23T23:45:44.853Z,91.36
2023-11-23T23:48:11.344Z,90.41
2023-11-23T23:50:37.820Z,90.88
2023-11-23T23:53:04.241Z,91.02
2023-11-23T23:55:30.622Z,90.59
2023-11-23T23:57:59.087Z,91.28
